Time;durP1;ratioP1;P1;durP2;ratioP2;P2;SDS_P1;SDS_P2;PMS_P1;PMS_P2;Temp;Humidity;BMP_temperature;BMP_pressure;BME280_temperature;BME280_humidity;BME280_pressure;Samples;Min_cycle;Max_cycle;Signal;HPM_P1;HPM_P2
2022/10/18 00:00:54;;;;;;;27.05;17.48;;;16.60;99.90;;;;;;4896324;29;20580;-74
2022/10/18 00:03:20;;;;;;;28.75;18.40;;;16.60;99.90;;;;;;4896659;29;20088;-74
2022/10/18 00:05:47;;;;;;;28.88;18.20;;;16.50;99.90;;;;;;4896373;29;20451;-74
2022/10/18 00:08:13;;;;;;;28.85;18.30;;;16.50;99.90;;;;;;4896545;29;20080;-74
2022/10/18 00:10:39;;;;;;;29.10;17.25;;;16.60;99.90;;;;;;4896578;29;20036;-74
2022/10/18 00:13:04;;;;;;;27.08;17.92;;;16.50;99.90;;;;;;4896649;29;20029;-74
2022/10/18 00:15:30;;;;;;;30.98;19.48;;;16.50;99.90;;;;;;4896531;29;20120;-73
2022/10/18 00:17:56;;;;;;;30.30;17.85;;;16.50;99.90;;;;;;4896386;29;20570;-74
2022/10/18 00:20:21;;;;;;;32.85;18.45;;;16.50;99.90;;;;;;4896410;29;20033;-74
2022/10/18 00:22:47;;;;;;;31.65;19.30;;;16.50;99.90;;;;;;4896476;29;20104;-74
2022/10/18 00:25:13;;;;;;;31.25;19.17;;;16.50;99.90;;;;;;4896344;29;20051;-73
2022/10/18 00:27:38;;;;;;;31.92;18.52;;;16.50;99.90;;;;;;4896330;29;20025;-74
2022/10/18 00:30:05;;;;;;;30.92;19.17;;;16.50;99.90;;;;;;4896292;29;20180;-74
2022/10/18 00:32:35;;;;;;;34.92;19.67;;;16.40;99.90;;;;;;4896454;29;20028;-74
2022/10/18 00:35:00;;;;;;;32.45;19.25;;;16.40;99.90;;;;;;4879657;29;20036;-74
2022/10/18 00:37:26;;;;;;;30.98;18.88;;;16.40;99.90;;;;;;4896428;29;20029;-74
2022/10/18 00:39:52;;;;;;;33.03;19.77;;;16.40;99.90;;;;;;4896362;29;20485;-74
2022/10/18 00:42:29;;;;;;;33.03;19.98;;;16.50;99.90;;;;;;4896255;29;20025;-74
2022/10/18 00:45:09;;;;;;;36.25;20.42;;;16.50;99.90;;;;;;4896253;29;20021;-74
2022/10/18 00:47:35;;;;;;;32.08;19.63;;;16.40;99.90;;;;;;4895654;29;20055;-74
2022/10/18 00:50:04;;;;;;;37.45;21.52;;;16.40;99.90;;;;;;4879267;29;20048;-74
2022/10/18 00:52:37;;;;;;;38.08;21.35;;;16.40;99.90;;;;;;4896010;29;20235;-74
2022/10/18 00:55:04;;;;;;;38.13;21.35;;;16.40;99.90;;;;;;4896058;29;20032;-74
2022/10/18 00:57:31;;;;;;;39.03;21.42;;;16.40;99.90;;;;;;4895832;29;20459;-74
2022/10/18 00:59:57;;;;;;;38.38;20.67;;;16.40;99.90;;;;;;4895843;29;20032;-74
2022/10/18 01:02:24;;;;;;;35.53;21.38;;;16.50;99.90;;;;;;4896112;29;20029;-74
2022/10/18 01:04:50;;;;;;;37.20;21.02;;;16.50;99.90;;;;;;4896066;29;20106;-74
2022/10/18 01:07:25;;;;;;;34.03;21.13;;;16.50;99.90;;;;;;4899183;29;20060;-74
2022/10/18 01:10:03;;;;;;;39.45;21.92;;;16.50;99.90;;;;;;4899642;29;20404;-74
2022/10/18 01:12:34;;;;;;;35.85;22.67;;;16.50;99.90;;;;;;4899474;29;20064;-74
2022/10/18 01:15:20;;;;;;;42.80;23.05;;;16.50;99.90;;;;;;4882727;29;20036;-74
2022/10/18 01:18:05;;;;;;;42.67;23.23;;;16.40;99.90;;;;;;4899442;29;20077;-74
2022/10/18 01:20:58;;;;;;;40.40;20.88;;;16.40;99.90;;;;;;4899187;29;20195;-74
2022/10/18 01:23:42;;;;;;;42.55;22.48;;;16.40;99.90;;;;;;4882489;29;20100;-74
2022/10/18 01:26:38;;;;;;;40.45;23.10;;;16.40;99.90;;;;;;4899346;29;20029;-74
2022/10/18 01:29:10;;;;;;;37.47;21.45;;;16.40;99.90;;;;;;4899227;29;20036;-74
2022/10/18 01:31:45;;;;;;;43.17;22.80;;;16.40;99.90;;;;;;4899065;29;20024;-74
2022/10/18 01:34:15;;;;;;;45.65;23.85;;;16.30;99.90;;;;;;4899261;29;20025;-74
2022/10/18 01:36:45;;;;;;;37.05;22.85;;;16.30;99.90;;;;;;4899127;29;20029;-74
2022/10/18 01:39:20;;;;;;;39.10;22.63;;;16.40;99.90;;;;;;4882180;29;20036;-74
2022/10/18 01:41:48;;;;;;;38.00;21.95;;;16.30;99.90;;;;;;4899102;29;20032;-74
2022/10/18 01:44:30;;;;;;;39.42;22.15;;;16.40;99.90;;;;;;4898994;29;20033;-74
2022/10/18 01:46:58;;;;;;;39.42;22.42;;;16.30;99.90;;;;;;4899095;29;20025;-74
2022/10/18 01:49:25;;;;;;;35.88;21.35;;;16.30;99.90;;;;;;4898810;29;20025;-74
2022/10/18 01:51:51;;;;;;;37.75;22.48;;;16.40;99.90;;;;;;4898874;29;20032;-74
2022/10/18 01:54:28;;;;;;;38.40;22.05;;;16.30;99.90;;;;;;4898880;29;20111;-74
2022/10/18 01:57:04;;;;;;;39.15;21.77;;;16.30;99.90;;;;;;4898885;29;20032;-74
2022/10/18 01:59:48;;;;;;;37.45;22.35;;;16.40;99.90;;;;;;4898630;29;20025;-75
2022/10/18 02:02:41;;;;;;;39.50;22.48;;;16.30;99.90;;;;;;4898642;29;20029;-74
2022/10/18 02:05:39;;;;;;;43.80;23.08;;;16.30;99.90;;;;;;4881884;29;20033;-74
2022/10/18 02:08:23;;;;;;;39.78;23.95;;;16.40;99.90;;;;;;4898751;29;20028;-74
2022/10/18 02:11:01;;;;;;;42.25;22.83;;;16.30;99.90;;;;;;4881631;29;20495;-74
2022/10/18 02:13:32;;;;;;;38.30;22.45;;;16.30;99.90;;;;;;4898436;29;20028;-74
2022/10/18 02:16:03;;;;;;;39.60;22.23;;;16.30;99.90;;;;;;4898502;29;20032;-74
2022/10/18 02:18:35;;;;;;;36.30;22.27;;;16.30;99.90;;;;;;4897718;29;20522;-74
2022/10/18 02:21:04;;;;;;;35.67;20.73;;;16.30;99.90;;;;;;4898135;29;20504;-73
2022/10/18 02:23:31;;;;;;;38.55;22.05;;;16.40;99.90;;;;;;4898136;29;20024;-74
2022/10/18 02:25:57;;;;;;;37.65;21.95;;;16.30;99.90;;;;;;4898156;29;20498;-73
2022/10/18 02:28:23;;;;;;;40.05;22.73;;;16.30;99.90;;;;;;4898074;29;20058;-74
2022/10/18 02:31:01;;;;;;;55.50;22.73;;;16.30;99.90;;;;;;4898222;29;20479;-74
2022/10/18 02:33:31;;;;;;;38.35;21.65;;;16.30;99.90;;;;;;4898143;29;20032;-74
2022/10/18 02:36:05;;;;;;;35.95;20.25;;;16.20;99.90;;;;;;4898021;29;20092;-74
2022/10/18 02:38:31;;;;;;;38.72;22.75;;;16.20;99.90;;;;;;4898045;29;20055;-74
2022/10/18 02:40:58;;;;;;;34.90;21.73;;;16.30;99.90;;;;;;4897800;29;20025;-74
2022/10/18 02:43:24;;;;;;;38.33;22.40;;;16.30;99.90;;;;;;4880948;29;20062;-74
2022/10/18 02:45:50;;;;;;;37.28;21.42;;;16.30;99.90;;;;;;4897890;29;20025;-74
2022/10/18 02:48:15;;;;;;;40.67;22.10;;;16.40;99.90;;;;;;4897661;29;20543;-74
2022/10/18 02:50:41;;;;;;;35.50;21.63;;;16.30;99.90;;;;;;4897084;29;20025;-74
2022/10/18 02:53:07;;;;;;;37.03;21.45;;;16.30;99.90;;;;;;4897713;29;20060;-74
2022/10/18 02:55:32;;;;;;;40.33;21.50;;;16.30;99.90;;;;;;4897371;29;20085;-74
2022/10/18 02:57:58;;;;;;;36.45;20.15;;;16.30;99.90;;;;;;4897571;29;20455;-74
2022/10/18 03:00:24;;;;;;;35.78;21.65;;;16.30;99.90;;;;;;4897475;29;20553;-74
2022/10/18 03:02:49;;;;;;;38.53;21.98;;;16.30;99.90;;;;;;4897522;29;20448;-74
2022/10/18 03:05:15;;;;;;;40.95;21.85;;;16.30;99.90;;;;;;4897471;29;20100;-74
2022/10/18 03:07:41;;;;;;;36.75;21.73;;;16.40;99.90;;;;;;4897330;29;20410;-74
2022/10/18 03:10:07;;;;;;;37.88;21.38;;;16.40;99.90;;;;;;4897358;29;20029;-74
2022/10/18 03:12:32;;;;;;;40.13;21.27;;;16.40;99.90;;;;;;4897393;29;20298;-74
2022/10/18 03:14:58;;;;;;;39.47;22.58;;;16.30;99.90;;;;;;4897217;29;20115;-74
2022/10/18 03:17:24;;;;;;;38.08;20.52;;;16.30;99.90;;;;;;4897370;29;20071;-74
2022/10/18 03:19:49;;;;;;;38.33;21.30;;;16.30;99.90;;;;;;4897166;29;20080;-74
2022/10/18 03:22:15;;;;;;;38.05;21.10;;;16.40;99.90;;;;;;4897130;29;20477;-74
2022/10/18 03:24:41;;;;;;;36.58;20.40;;;16.30;99.90;;;;;;4897174;29;20028;-74
2022/10/18 03:27:06;;;;;;;37.45;20.65;;;16.30;99.90;;;;;;4897069;29;20092;-74
2022/10/18 03:29:32;;;;;;;35.58;20.15;;;16.40;99.90;;;;;;4896081;29;20060;-74
2022/10/18 03:31:58;;;;;;;42.85;21.63;;;16.40;99.90;;;;;;4897054;29;20439;-74
2022/10/18 03:34:23;;;;;;;37.08;21.85;;;16.40;99.90;;;;;;4897046;29;20029;-74
2022/10/18 03:36:49;;;;;;;32.10;19.92;;;16.50;99.90;;;;;;4897171;29;20036;-74
2022/10/18 03:39:15;;;;;;;36.47;20.20;;;16.50;99.90;;;;;;4880208;29;20033;-74
2022/10/18 03:41:41;;;;;;;33.60;20.73;;;16.60;99.90;;;;;;4896923;29;20364;-74
2022/10/18 03:44:06;;;;;;;35.42;20.38;;;16.60;99.90;;;;;;4896907;29;20025;-74
2022/10/18 03:46:32;;;;;;;36.28;19.77;;;16.60;99.90;;;;;;4896792;29;20025;-74
2022/10/18 03:48:57;;;;;;;34.42;20.70;;;16.50;99.90;;;;;;4896762;29;20217;-74
2022/10/18 03:51:23;;;;;;;38.13;21.58;;;16.50;99.90;;;;;;4896759;29;20711;-74
2022/10/18 03:53:49;;;;;;;36.78;20.20;;;16.50;99.90;;;;;;4896683;29;20028;-74
2022/10/18 03:56:14;;;;;;;34.40;20.08;;;16.40;99.90;;;;;;4896628;29;20036;-74
2022/10/18 03:58:40;;;;;;;37.50;21.27;;;16.40;99.90;;;;;;4879863;29;20029;-74
2022/10/18 04:01:06;;;;;;;36.78;20.42;;;16.40;99.90;;;;;;4896605;29;20024;-74
2022/10/18 04:03:32;;;;;;;35.22;19.95;;;16.40;99.90;;;;;;4896515;29;20024;-74
2022/10/18 04:05:59;;;;;;;33.83;21.02;;;16.30;99.90;;;;;;4896581;29;20050;-74
2022/10/18 04:08:25;;;;;;;35.05;20.65;;;16.30;99.90;;;;;;4896567;29;20371;-74
2022/10/18 04:10:51;;;;;;;36.85;21.38;;;16.30;99.90;;;;;;4879619;29;20035;-74
2022/10/18 04:13:17;;;;;;;32.75;19.88;;;16.30;99.90;;;;;;4896451;29;20526;-73
2022/10/18 04:15:43;;;;;;;33.63;20.75;;;16.30;99.90;;;;;;4896557;29;20079;-73
2022/10/18 04:18:08;;;;;;;35.67;21.20;;;16.30;99.90;;;;;;4896472;29;20409;-74
2022/10/18 04:20:34;;;;;;;34.00;18.95;;;16.30;99.90;;;;;;4896244;29;20028;-74
2022/10/18 04:23:00;;;;;;;35.00;21.00;;;16.30;99.90;;;;;;4895339;29;20081;-74
2022/10/18 04:25:27;;;;;;;33.42;20.55;;;16.30;99.90;;;;;;4878790;29;20032;-74
2022/10/18 04:27:53;;;;;;;33.50;19.92;;;16.30;99.90;;;;;;4896191;29;20158;-74
2022/10/18 04:30:18;;;;;;;37.20;20.70;;;16.40;99.90;;;;;;4879625;29;20036;-74
2022/10/18 04:32:44;;;;;;;31.05;19.45;;;16.30;99.90;;;;;;4896350;29;20042;-74
2022/10/18 04:35:10;;;;;;;34.33;20.00;;;16.40;99.90;;;;;;4896069;29;20021;-74
2022/10/18 04:37:37;;;;;;;32.33;18.73;;;16.40;99.90;;;;;;4895015;29;20055;-74
2022/10/18 04:40:04;;;;;;;35.08;21.15;;;16.40;99.90;;;;;;4878164;29;20025;-74
2022/10/18 04:42:29;;;;;;;30.00;19.08;;;16.40;99.90;;;;;;4881750;29;20036;-74
2022/10/18 04:44:55;;;;;;;35.35;19.52;;;16.40;99.90;;;;;;4881756;29;20020;-74
2022/10/18 04:47:21;;;;;;;32.03;19.88;;;16.40;99.90;;;;;;4898442;29;20033;-74
2022/10/18 04:49:46;;;;;;;30.92;19.10;;;16.30;99.90;;;;;;4898298;29;20028;-74
2022/10/18 04:52:12;;;;;;;34.50;19.15;;;16.40;99.90;;;;;;4898683;29;20080;-74
2022/10/18 04:54:38;;;;;;;34.53;20.27;;;16.30;99.90;;;;;;4898526;29;20024;-74
2022/10/18 04:57:03;;;;;;;30.02;18.88;;;16.30;99.90;;;;;;4898417;29;20040;-74
2022/10/18 04:59:29;;;;;;;38.05;18.67;;;16.30;99.90;;;;;;4905073;29;20082;-74
2022/10/18 05:01:55;;;;;;;32.08;18.55;;;16.30;99.90;;;;;;4897001;29;20067;-74
2022/10/18 05:04:21;;;;;;;32.47;19.05;;;16.40;99.90;;;;;;4899139;29;20471;-74
2022/10/18 05:06:47;;;;;;;32.83;18.63;;;16.30;99.90;;;;;;4882435;29;20135;-74
2022/10/18 05:09:13;;;;;;;30.92;20.15;;;16.30;99.90;;;;;;4899457;29;20028;-74
2022/10/18 05:11:38;;;;;;;31.63;18.92;;;16.40;99.90;;;;;;4882111;29;20025;-74
2022/10/18 05:14:04;;;;;;;33.13;18.88;;;16.30;99.90;;;;;;4882639;29;20097;-74
2022/10/18 05:16:31;;;;;;;32.55;18.92;;;16.30;99.90;;;;;;4882684;29;20032;-74
2022/10/18 05:18:57;;;;;;;30.23;18.17;;;16.30;99.90;;;;;;4899412;29;20448;-74
2022/10/18 05:21:22;;;;;;;34.38;19.92;;;16.30;99.90;;;;;;4897958;29;20119;-74
2022/10/18 05:23:48;;;;;;;29.17;18.48;;;16.30;99.90;;;;;;4897494;29;20056;-74
2022/10/18 05:26:14;;;;;;;32.50;18.20;;;16.30;99.90;;;;;;4897483;29;20033;-74
2022/10/18 05:28:39;;;;;;;30.77;18.98;;;16.30;99.90;;;;;;4880446;29;20025;-74
2022/10/18 05:31:07;;;;;;;30.80;18.63;;;16.30;99.90;;;;;;4897299;29;20036;-74
2022/10/18 05:33:33;;;;;;;36.03;20.15;;;16.30;99.90;;;;;;4897195;29;20035;-74
2022/10/18 05:35:59;;;;;;;29.10;17.92;;;16.30;99.90;;;;;;4897718;29;20068;-74
2022/10/18 05:38:25;;;;;;;33.42;19.70;;;16.30;99.90;;;;;;4899175;29;20053;-74
2022/10/18 05:40:50;;;;;;;33.78;20.42;;;16.30;99.90;;;;;;4898863;29;20048;-74
2022/10/18 05:43:16;;;;;;;32.20;19.40;;;16.30;99.90;;;;;;4899084;29;20076;-74
2022/10/18 05:45:51;;;;;;;33.10;19.90;;;16.30;99.90;;;;;;4898943;29;20031;-74
2022/10/18 05:48:17;;;;;;;31.98;18.92;;;16.30;99.90;;;;;;4898826;29;20037;-74
2022/10/18 05:50:43;;;;;;;35.92;19.67;;;16.30;99.90;;;;;;4898604;29;20570;-74
2022/10/18 05:53:09;;;;;;;34.65;19.20;;;16.30;99.90;;;;;;4897832;29;20069;-74
2022/10/18 05:55:35;;;;;;;27.73;17.60;;;16.30;99.90;;;;;;4898834;29;20475;-74
2022/10/18 05:58:02;;;;;;;28.70;18.35;;;16.30;99.90;;;;;;4881796;29;20041;-74
2022/10/18 06:00:28;;;;;;;30.95;18.10;;;16.30;99.90;;;;;;4898612;29;20116;-74
2022/10/18 06:02:53;;;;;;;26.65;16.42;;;16.40;99.90;;;;;;4898779;29;20104;-74
2022/10/18 06:05:19;;;;;;;29.00;17.08;;;16.30;99.90;;;;;;4898588;29;20128;-74
2022/10/18 06:07:45;;;;;;;29.88;17.58;;;16.30;99.90;;;;;;4898478;29;20442;-74
2022/10/18 06:10:11;;;;;;;33.25;17.95;;;16.30;99.90;;;;;;4898517;29;20594;-74
2022/10/18 06:12:36;;;;;;;31.00;16.70;;;16.30;99.90;;;;;;4898616;29;20562;-74
2022/10/18 06:15:03;;;;;;;29.23;18.20;;;16.30;99.90;;;;;;4898344;29;20503;-74
2022/10/18 06:17:28;;;;;;;31.05;17.65;;;16.30;99.90;;;;;;4881502;29;20050;-74
2022/10/18 06:19:54;;;;;;;28.50;18.15;;;16.30;99.90;;;;;;4898170;29;20487;-74
2022/10/18 06:22:20;;;;;;;35.17;17.17;;;16.20;99.90;;;;;;4881468;29;20088;-74
2022/10/18 06:24:45;;;;;;;27.92;17.52;;;16.20;99.90;;;;;;4881505;29;20048;-74
2022/10/18 06:27:11;;;;;;;27.73;16.65;;;16.30;99.90;;;;;;4898270;29;20380;-74
2022/10/18 06:29:38;;;;;;;28.73;16.70;;;16.40;99.90;;;;;;4898143;29;20089;-74
2022/10/18 06:32:06;;;;;;;25.13;16.13;;;16.30;99.90;;;;;;4881234;29;20033;-74
2022/10/18 06:34:33;;;;;;;27.17;16.95;;;16.40;99.90;;;;;;4881179;29;20479;-74
2022/10/18 06:36:59;;;;;;;26.38;16.40;;;16.40;99.90;;;;;;4897990;29;20028;-74
2022/10/18 06:39:25;;;;;;;30.45;16.77;;;16.40;99.90;;;;;;4897650;29;20037;-74
2022/10/18 06:41:50;;;;;;;27.15;17.63;;;16.40;99.90;;;;;;4897550;29;20100;-74
2022/10/18 06:44:16;;;;;;;27.75;16.58;;;16.50;99.90;;;;;;4897903;29;20031;-74
2022/10/18 06:46:44;;;;;;;28.38;17.88;;;16.50;99.90;;;;;;4897783;29;20376;-74
2022/10/18 06:49:10;;;;;;;27.40;17.20;;;16.50;99.90;;;;;;4897721;29;20025;-73
2022/10/18 06:51:36;;;;;;;26.48;15.60;;;16.40;99.90;;;;;;4898869;29;20388;-73
2022/10/18 06:54:03;;;;;;;26.73;16.33;;;16.50;99.90;;;;;;4898401;29;20029;-74
2022/10/18 06:56:29;;;;;;;28.15;17.00;;;16.50;99.90;;;;;;4898868;29;20035;-74
2022/10/18 06:58:55;;;;;;;30.10;18.40;;;16.50;99.90;;;;;;4898874;29;20032;-74
2022/10/18 07:01:21;;;;;;;30.33;17.38;;;16.50;99.90;;;;;;4898685;29;20399;-74
2022/10/18 07:03:48;;;;;;;26.48;17.10;;;16.60;99.90;;;;;;4898429;29;20029;-74
2022/10/18 07:06:16;;;;;;;27.92;18.05;;;16.60;99.90;;;;;;4898405;29;20128;-74
2022/10/18 07:08:43;;;;;;;30.85;19.20;;;16.60;99.90;;;;;;4898291;29;20021;-74
2022/10/18 07:11:15;;;;;;;31.08;19.88;;;16.60;99.90;;;;;;4898648;29;20107;-74
2022/10/18 07:13:41;;;;;;;30.42;19.13;;;16.70;99.90;;;;;;4897809;29;20035;-74
2022/10/18 07:16:13;;;;;;;34.38;19.85;;;16.70;99.90;;;;;;4897335;29;20104;-74
2022/10/18 07:18:42;;;;;;;33.72;20.00;;;16.70;99.90;;;;;;4897615;29;20036;-74
2022/10/18 07:21:09;;;;;;;36.88;21.45;;;16.70;99.90;;;;;;4898143;29;20037;-74
2022/10/18 07:23:37;;;;;;;34.90;20.85;;;16.70;99.90;;;;;;4898260;29;20024;-74
2022/10/18 07:26:10;;;;;;;38.38;21.40;;;16.80;99.90;;;;;;4881586;29;20036;-74
2022/10/18 07:28:36;;;;;;;37.33;22.40;;;16.80;99.90;;;;;;4898384;29;20033;-74
2022/10/18 07:31:07;;;;;;;37.47;22.50;;;16.80;99.90;;;;;;4898270;29;20569;-74
2022/10/18 07:33:34;;;;;;;37.30;21.00;;;16.80;99.90;;;;;;4898203;29;20088;-74
2022/10/18 07:36:02;;;;;;;37.70;21.75;;;16.80;99.90;;;;;;4897974;29;20028;-74
2022/10/18 07:38:28;;;;;;;36.28;21.30;;;16.80;99.90;;;;;;4896895;29;20119;-74
2022/10/18 07:41:01;;;;;;;33.85;21.08;;;16.90;99.90;;;;;;4896836;29;20115;-74
2022/10/18 07:43:27;;;;;;;35.70;21.13;;;16.90;99.90;;;;;;4880175;29;20025;-76
2022/10/18 07:45:55;;;;;;;33.63;21.13;;;16.90;99.90;;;;;;4896841;29;20485;-76
2022/10/18 07:48:21;;;;;;;41.60;24.15;;;16.90;99.90;;;;;;4895709;29;20063;-76
2022/10/18 07:50:47;;;;;;;43.50;23.83;;;17.00;99.90;;;;;;4894929;29;20032;-76
2022/10/18 07:53:12;;;;;;;40.65;23.48;;;17.00;99.90;;;;;;4895095;29;20043;-76
2022/10/18 07:55:38;;;;;;;37.15;23.48;;;17.00;99.90;;;;;;4895346;29;20095;-76
2022/10/18 07:58:04;;;;;;;48.17;23.40;;;17.00;99.90;;;;;;4895306;29;20035;-75
2022/10/18 08:00:30;;;;;;;37.65;22.25;;;17.10;99.90;;;;;;4895142;29;20033;-76
2022/10/18 08:02:57;;;;;;;39.00;22.38;;;17.10;99.90;;;;;;4895533;29;20121;-76
2022/10/18 08:05:23;;;;;;;40.85;23.30;;;17.10;99.90;;;;;;4879641;29;20029;-76
2022/10/18 08:07:49;;;;;;;42.38;23.88;;;17.20;99.90;;;;;;4896528;29;20023;-76
2022/10/18 08:10:15;;;;;;;50.92;24.05;;;17.10;99.90;;;;;;4879707;29;20123;-76
2022/10/18 08:12:41;;;;;;;46.85;24.98;;;17.20;99.90;;;;;;4896397;29;20097;-76
2022/10/18 08:15:07;;;;;;;40.60;23.73;;;17.20;99.90;;;;;;4896001;29;20376;-76
2022/10/18 08:17:33;;;;;;;42.92;23.98;;;17.30;99.90;;;;;;4896461;29;20403;-76
2022/10/18 08:19:58;;;;;;;41.90;24.35;;;17.30;99.90;;;;;;4896470;29;20033;-76
2022/10/18 08:22:24;;;;;;;39.47;24.08;;;17.40;99.90;;;;;;4896587;29;20025;-77
2022/10/18 08:24:50;;;;;;;41.47;24.13;;;17.40;99.90;;;;;;4896487;29;20024;-76
2022/10/18 08:27:16;;;;;;;41.58;24.70;;;17.50;99.90;;;;;;4896378;29;20025;-75
2022/10/18 08:29:41;;;;;;;40.25;23.75;;;17.50;99.90;;;;;;4896283;29;20551;-76
2022/10/18 08:32:07;;;;;;;49.97;25.25;;;17.50;99.90;;;;;;4896398;29;20033;-76
2022/10/18 08:34:34;;;;;;;42.92;23.60;;;17.50;99.90;;;;;;4896217;29;20399;-76
2022/10/18 08:37:00;;;;;;;43.53;24.85;;;17.50;99.90;;;;;;4896383;29;20266;-76
2022/10/18 08:39:25;;;;;;;42.03;24.10;;;17.50;99.90;;;;;;4879387;29;20555;-76
2022/10/18 08:42:00;;;;;;;41.65;23.98;;;17.60;99.90;;;;;;4896253;29;20428;-77
2022/10/18 08:44:30;;;;;;;42.20;23.45;;;17.60;99.90;;;;;;4896248;29;20415;-76
2022/10/18 08:47:10;;;;;;;42.15;24.60;;;17.70;99.90;;;;;;4895870;29;20019;-76
2022/10/18 08:49:41;;;;;;;41.97;24.33;;;17.70;99.90;;;;;;4896176;29;20480;-76
2022/10/18 08:52:33;;;;;;;47.42;25.80;;;17.80;99.90;;;;;;4896328;29;20025;-76
2022/10/18 08:55:08;;;;;;;39.75;23.08;;;17.90;99.90;;;;;;4896284;29;20047;-76
2022/10/18 08:57:34;;;;;;;38.10;23.75;;;17.90;99.90;;;;;;4896246;29;20060;-76
2022/10/18 09:00:24;;;;;;;44.63;23.05;;;18.00;99.90;;;;;;4896195;29;20028;-76
2022/10/18 09:03:08;;;;;;;37.90;22.60;;;18.00;99.90;;;;;;4896064;29;20064;-76
2022/10/18 09:05:40;;;;;;;39.65;23.38;;;18.10;99.90;;;;;;4895951;29;20124;-76
2022/10/18 09:08:31;;;;;;;41.88;24.20;;;18.10;99.90;;;;;;4896299;29;20107;-76
2022/10/18 09:11:04;;;;;;;39.85;22.65;;;18.20;99.90;;;;;;4895480;29;20084;-76
2022/10/18 09:13:33;;;;;;;35.95;23.15;;;18.10;99.90;;;;;;4877580;29;20029;-76
2022/10/18 09:16:03;;;;;;;41.97;23.15;;;18.10;99.90;;;;;;4877413;29;20036;-76
2022/10/18 09:18:53;;;;;;;38.33;22.88;;;18.20;99.90;;;;;;4877422;29;20033;-76
2022/10/18 09:21:54;;;;;;;38.08;22.17;;;18.20;99.90;;;;;;4860393;29;20029;-76
2022/10/18 09:24:35;;;;;;;36.90;21.45;;;18.20;99.90;;;;;;4801922;29;20035;-76
2022/10/18 09:27:09;;;;;;;38.05;20.60;;;18.20;99.90;;;;;;4869443;29;20072;-76
2022/10/18 09:29:53;;;;;;;34.45;21.05;;;18.30;99.90;;;;;;4880715;29;20033;-76
2022/10/18 09:32:40;;;;;;;38.97;22.75;;;18.40;99.90;;;;;;4880414;29;20088;-76
2022/10/18 09:35:23;;;;;;;36.75;21.45;;;18.50;99.90;;;;;;4880880;29;20116;-76
2022/10/18 09:37:52;;;;;;;35.55;21.63;;;18.50;99.90;;;;;;4896977;29;20037;-77
2022/10/18 09:40:24;;;;;;;38.33;21.30;;;18.60;99.90;;;;;;4900052;29;20044;-77
2022/10/18 09:42:59;;;;;;;41.30;22.27;;;18.60;99.90;;;;;;4883493;29;20472;-77
2022/10/18 09:45:25;;;;;;;37.97;20.95;;;18.70;99.90;;;;;;4900446;29;20025;-77
2022/10/18 09:47:59;;;;;;;38.88;22.05;;;18.70;99.90;;;;;;4900323;29;20025;-77
2022/10/18 09:50:58;;;;;;;40.70;23.50;;;18.80;99.90;;;;;;4883436;29;20131;-77
2022/10/18 09:53:39;;;;;;;39.63;24.25;;;18.80;99.90;;;;;;4892290;29;20049;-77
2022/10/18 09:56:17;;;;;;;41.78;24.48;;;18.80;99.90;;;;;;4900178;29;20036;-77
2022/10/18 09:58:46;;;;;;;45.85;24.60;;;18.80;99.90;;;;;;4900147;29;20104;-76
2022/10/18 10:01:17;;;;;;;42.63;22.77;;;18.80;99.90;;;;;;4899919;29;20035;-77
2022/10/18 10:03:43;;;;;;;43.60;23.35;;;18.80;99.90;;;;;;4882974;29;20392;-76
2022/10/18 10:06:11;;;;;;;40.58;23.17;;;18.90;99.90;;;;;;4899530;29;20045;-76
2022/10/18 10:08:48;;;;;;;41.92;23.77;;;18.80;99.90;;;;;;4882911;29;20368;-77
2022/10/18 10:11:33;;;;;;;40.65;23.30;;;18.90;99.90;;;;;;4883070;29;20024;-77
2022/10/18 10:14:26;;;;;;;40.53;23.10;;;18.90;99.90;;;;;;4899860;29;20029;-76
2022/10/18 10:16:53;;;;;;;40.10;22.83;;;19.00;99.90;;;;;;4877356;29;20511;-76
2022/10/18 10:19:23;;;;;;;49.72;25.95;;;19.10;99.90;;;;;;4899718;29;20020;-76
2022/10/18 10:21:52;;;;;;;48.58;24.98;;;19.20;99.90;;;;;;4882858;29;20025;-76
2022/10/18 10:24:27;;;;;;;41.95;24.08;;;19.20;99.90;;;;;;4899306;29;20028;-76
2022/10/18 10:26:59;;;;;;;38.95;24.10;;;19.40;99.90;;;;;;4899646;29;20075;-77
2022/10/18 10:29:46;;;;;;;47.30;25.58;;;19.60;99.90;;;;;;4899590;29;20028;-76
2022/10/18 10:32:18;;;;;;;38.35;23.10;;;19.60;99.90;;;;;;4882670;29;20128;-76
2022/10/18 10:34:44;;;;;;;48.28;24.58;;;19.60;99.90;;;;;;4899559;29;20357;-77
2022/10/18 10:37:33;;;;;;;37.28;20.25;;;19.60;99.90;;;;;;4899336;29;20031;-77
2022/10/18 10:40:16;;;;;;;41.53;22.08;;;19.60;99.90;;;;;;4898883;29;20033;-76
2022/10/18 10:43:00;;;;;;;38.53;20.85;;;19.60;99.90;;;;;;4899370;29;20024;-77
2022/10/18 10:45:28;;;;;;;32.40;19.92;;;19.60;99.90;;;;;;4899240;29;20454;-77
2022/10/18 10:48:02;;;;;;;34.17;19.63;;;19.60;99.90;;;;;;4899311;29;20120;-77
2022/10/18 10:50:29;;;;;;;32.15;19.15;;;19.80;99.90;;;;;;4899221;29;20100;-76
2022/10/18 10:52:55;;;;;;;37.55;20.52;;;19.80;99.90;;;;;;4882332;29;20499;-76
2022/10/18 10:55:32;;;;;;;34.97;20.95;;;19.80;99.90;;;;;;4899151;29;20029;-76
2022/10/18 10:57:58;;;;;;;36.03;19.88;;;19.90;99.90;;;;;;4899161;29;20059;-76
2022/10/18 11:00:56;;;;;;;27.33;16.55;;;19.90;99.90;;;;;;4898907;29;20119;-77
2022/10/18 11:03:23;;;;;;;25.67;15.68;;;20.00;99.90;;;;;;4851875;29;20096;-76
2022/10/18 11:06:00;;;;;;;23.38;15.10;;;20.20;99.90;;;;;;4881993;29;20116;-77
2022/10/18 11:08:31;;;;;;;23.48;14.27;;;20.10;99.90;;;;;;4898897;29;20392;-76
2022/10/18 11:11:18;;;;;;;21.20;13.77;;;20.10;99.90;;;;;;4898937;29;20071;-76
2022/10/18 11:13:53;;;;;;;20.98;13.43;;;20.20;99.90;;;;;;4880987;29;20620;-76
2022/10/18 11:16:49;;;;;;;21.92;13.38;;;20.20;99.90;;;;;;4898779;29;20106;-77
2022/10/18 11:19:46;;;;;;;21.92;14.00;;;20.20;99.90;;;;;;4898618;29;20507;-77
2022/10/18 11:22:17;;;;;;;20.08;13.05;;;20.20;99.90;;;;;;4881924;29;20191;-77
2022/10/18 11:24:43;;;;;;;17.08;12.52;;;20.30;99.90;;;;;;4898464;29;20126;-77
2022/10/18 11:27:27;;;;;;;19.23;12.50;;;20.30;99.90;;;;;;4898601;29;20485;-77
2022/10/18 11:30:12;;;;;;;19.48;11.95;;;20.30;99.90;;;;;;4898432;29;20555;-77
2022/10/18 11:33:10;;;;;;;17.85;10.90;;;20.30;99.90;;;;;;4881755;29;20036;-77
2022/10/18 11:35:54;;;;;;;16.77;11.02;;;20.40;99.90;;;;;;4898430;29;20387;-77
2022/10/18 11:38:25;;;;;;;16.55;10.63;;;20.40;99.90;;;;;;4898321;29;20536;-77
2022/10/18 11:41:13;;;;;;;14.25;10.82;;;20.50;99.90;;;;;;4898229;29;20035;-76
2022/10/18 11:43:50;;;;;;;14.35;9.73;;;20.70;99.90;;;;;;4898387;29;20510;-77
2022/10/18 11:46:26;;;;;;;16.88;10.40;;;20.80;99.90;;;;;;4898240;29;20472;-77
2022/10/18 11:49:02;;;;;;;15.10;10.23;;;21.00;99.90;;;;;;4881242;29;20576;-76
2022/10/18 11:51:58;;;;;;;16.73;10.57;;;21.10;99.90;;;;;;4880471;29;20479;-77
2022/10/18 11:54:42;;;;;;;18.60;11.65;;;21.20;99.90;;;;;;4897848;29;20479;-77
2022/10/18 11:57:30;;;;;;;18.10;12.00;;;21.20;99.90;;;;;;4896810;29;20032;-76
2022/10/18 12:00:04;;;;;;;17.85;12.25;;;21.30;99.90;;;;;;4896715;29;20036;-76
2022/10/18 12:03:10;;;;;;;20.92;13.88;;;21.30;99.90;;;;;;4896092;29;20399;-77
2022/10/18 12:05:38;;;;;;;24.50;14.85;;;21.30;99.90;;;;;;4858983;29;20403;-76
2022/10/18 12:08:13;;;;;;;26.35;17.02;;;21.40;99.90;;;;;;4895205;29;20020;-76
2022/10/18 12:10:41;;;;;;;26.38;15.82;;;21.30;99.90;;;;;;4895066;29;20401;-76
2022/10/18 12:13:16;;;;;;;28.65;16.98;;;21.30;99.90;;;;;;4895350;29;20387;-76
2022/10/18 12:15:42;;;;;;;31.17;17.27;;;21.40;99.90;;;;;;4895467;29;20052;-77
2022/10/18 12:18:16;;;;;;;33.75;19.50;;;21.40;99.90;;;;;;4895396;29;20506;-76
2022/10/18 12:20:46;;;;;;;43.70;23.00;;;21.40;99.90;;;;;;4895317;29;20480;-76
2022/10/18 12:23:16;;;;;;;35.35;21.25;;;21.40;99.90;;;;;;4896753;29;20025;-76
2022/10/18 12:25:51;;;;;;;44.38;22.45;;;21.40;99.90;;;;;;4896578;29;20061;-76
2022/10/18 12:28:47;;;;;;;47.15;23.90;;;21.40;99.90;;;;;;4879950;29;20052;-76
2022/10/18 12:31:38;;;;;;;43.60;24.67;;;21.40;99.90;;;;;;4896623;29;20033;-76
2022/10/18 12:34:22;;;;;;;50.80;27.05;;;21.40;99.90;;;;;;4896483;29;20033;-77
2022/10/18 12:36:53;;;;;;;48.78;26.33;;;21.50;99.90;;;;;;4896470;29;20033;-76
2022/10/18 12:39:26;;;;;;;41.63;24.35;;;21.50;99.90;;;;;;4896244;29;20039;-77
2022/10/18 12:41:55;;;;;;;56.97;27.67;;;21.50;99.90;;;;;;4896020;29;20592;-76
2022/10/18 12:44:27;;;;;;;60.65;32.58;;;21.40;99.90;;;;;;4896389;29;20056;-76
2022/10/18 12:46:59;;;;;;;63.20;31.23;;;21.40;99.90;;;;;;4896497;29;20021;-76